Bf Esperanza — V2BR8 — position and weather

sailwx.info

Track history (hours):
 
Tides and Currents Weather Stations Pressure Air Temp Water Temp Dewpoint Dewpoint Depression Visibility Wind Speed Wind Dir Waves Ship Positions

Bf Esperanza

Last reported at 2017-Mar-23 19:34 UTC. Time now 2017-Mar-23 20:25 UTC.
Position N 59°00' E 010°33'.

Length 135 m; draft 8.4 m.

Type: Ship (hazmat cat A). MMSI: 304907000.

Date/timePositionNaut miles runAvg speedWind from/ knotsBaromVisibWave heightAir tempDewpointWater temp
2017-Mar-23 19:34N 59°00' E 010°33'1312.9
2017-Mar-23 18:33N 59°13' E 010°36'1615.9
2017-Mar-23 17:33N 59°29' E 010°29'1111.0
2017-Mar-23 16:33N 59°39' E 010°24'7 5.0
2017-Mar-23 15:09N 59°44' E 010°14'0 0.0
2017-Mar-23 14:32N 59°44' E 010°14'0 0.0
2017-Mar-23 13:32N 59°44' E 010°14'0 0.0
2017-Mar-23 12:31N 59°44' E 010°14'0 0.0
2017-Mar-23 11:31N 59°44' E 010°14'0 0.0
2017-Mar-23 10:31N 59°44' E 010°14'0 0.0
2017-Mar-23 09:33N 59°44' E 010°14'0 0.0
2017-Mar-23 08:33N 59°44' E 010°14'0 0.0
2017-Mar-23 07:32N 59°44' E 010°14'0 0.0
2017-Mar-23 06:32N 59°44' E 010°14'0 0.0
2017-Mar-23 05:32N 59°44' E 010°14'4 3.5
2017-Mar-23 04:33N 59°42' E 010°20'9 8.8
2017-Mar-23 03:33N 59°34' E 010°25'10 9.8
2017-Mar-23 02:33N 59°25' E 010°34'1414.2
2017-Mar-23 01:33N 59°11' E 010°39'1212.4
2017-Mar-23 00:33N 58°59' E 010°35'1414.2
2017-Mar-22 23:33N 58°45' E 010°37'1514.8
2017-Mar-22 22:34N 58°30' E 010°39'1414.4
2017-Mar-22 21:33N 58°16' E 010°41'1414.4
2017-Mar-22 20:33N 58°01' E 010°43'1413.9
2017-Mar-22 19:33N 57°48' E 010°49'1414.3
2017-Mar-22 18:33N 57°37' E 011°08'1514.6
2017-Mar-22 17:33N 57°27' E 011°27'1514.6
2017-Mar-22 16:33N 57°13' E 011°36'1514.8
2017-Mar-22 15:32N 56°59' E 011°46'4515.1
2017-Mar-22 12:34N 56°16' E 012°10'1515.1
2017-Mar-22 11:33N 56°07' E 012°32'8 7.5
2017-Mar-22 10:32N 56°02' E 012°42'0 0.0
2017-Mar-22 09:32N 56°02' E 012°42'0 0.0
2017-Mar-22 08:31N 56°02' E 012°42'0 0.0
2017-Mar-22 07:31N 56°02' E 012°42'0 0.0
2017-Mar-22 06:33N 56°02' E 012°42'0 0.0
2017-Mar-22 05:33N 56°02' E 012°42'0 0.0
2017-Mar-22 04:33N 56°02' E 012°42'0 0.0
2017-Mar-22 03:32N 56°02' E 012°42'0 0.0
2017-Mar-22 02:32N 56°02' E 012°42'0 0.0
2017-Mar-22 01:31N 56°02' E 012°42'0 0.0
2017-Mar-22 00:31N 56°02' E 012°42'0 0.0
2017-Mar-21 23:33N 56°02' E 012°42'0 0.0
2017-Mar-21 22:33N 56°02' E 012°42'0 0.0
2017-Mar-21 21:33N 56°02' E 012°42'0 0.0
2017-Mar-21 20:32N 56°02' E 012°42'0 0.0
2017-Mar-21 19:29N 56°02' E 012°42'0 0.0
2017-Mar-21 18:31N 56°02' E 012°42'0 0.0
2017-Mar-21 17:31N 56°02' E 012°42'0 0.0
2017-Mar-21 16:33N 56°02' E 012°42'0 0.0
2017-Mar-21 15:33N 56°02' E 012°42'0 0.0
2017-Mar-21 14:33N 56°02' E 012°42'0 0.0
2017-Mar-21 13:32N 56°02' E 012°42'0 0.0
2017-Mar-21 12:32N 56°02' E 012°42'0 0.0
2017-Mar-21 11:31N 56°02' E 012°42'0 0.0
2017-Mar-21 10:31N 56°02' E 012°42'0 0.0
2017-Mar-21 09:33N 56°02' E 012°42'0 0.0
2017-Mar-21 08:33N 56°02' E 012°42'0 0.0
2017-Mar-21 07:32N 56°02' E 012°42'0 0.0
2017-Mar-21 06:32N 56°02' E 012°42'1 0.9
2017-Mar-21 05:33N 56°01' E 012°42'8 7.9
2017-Mar-21 04:33N 56°07' E 012°32'9 9.3
2017-Mar-21 03:33N 56°12' E 012°18'1312.6
2017-Mar-21 02:33N 56°21' E 012°02'68 9.5
2017-Mar-20 19:28N 55°22' E 011°02'1213.2
2017-Mar-20 18:34N 55°10' E 011°04'1313.2
2017-Mar-20 17:33N 54°58' E 010°59'1312.9
2017-Mar-20 16:33N 54°45' E 010°53'1312.8
2017-Mar-20 15:33N 54°35' E 010°39'46 6.3
2017-Mar-20 08:14N 54°11' E 009°31'5 6.8
2017-Mar-20 07:33N 54°10' E 009°24'5 5.1
2017-Mar-20 06:31N 54°05' E 009°19'5 5.4
2017-Mar-20 05:33N 53°60' E 009°18'5 4.9
2017-Mar-20 04:33N 53°56' E 009°13'3 3.3
2017-Mar-20 03:33N 53°54' E 009°09'2 1.7
2017-Mar-20 02:33N 53°53' E 009°06'7 7.5
2017-Mar-20 01:33N 53°51' E 008°54'1413.7
2017-Mar-20 00:33N 53°58' E 008°34'1515.3
2017-Mar-19 23:33N 53°60' E 008°08'1111.0
2017-Mar-19 22:33N 53°52' E 007°55'1414.2
2017-Mar-19 21:33N 53°44' E 008°15'1211.9
2017-Mar-19 20:32N 53°36' E 008°31'0 0.0
2017-Mar-19 19:31N 53°36' E 008°31'0 0.0
2017-Mar-19 18:31N 53°36' E 008°31'0 0.0
2017-Mar-19 17:30N 53°36' E 008°31'0 0.0
2017-Mar-19 16:33N 53°36' E 008°31'0 0.0
2017-Mar-19 15:33N 53°36' E 008°31'0 0.0
2017-Mar-19 14:32N 53°36' E 008°31'0 0.0
2017-Mar-19 13:32N 53°36' E 008°31'0 0.0
2017-Mar-19 12:28N 53°36' E 008°31'0 0.0
2017-Mar-19 11:31N 53°36' E 008°31'0 0.0
2017-Mar-19 10:33N 53°36' E 008°31'0 0.0
2017-Mar-19 09:33N 53°36' E 008°31'0 0.0
2017-Mar-19 08:33N 53°36' E 008°31'0 0.0
2017-Mar-19 07:32N 53°36' E 008°31'0 0.0
2017-Mar-19 06:32N 53°36' E 008°31'0 0.0
2017-Mar-19 05:31N 53°36' E 008°31'0 0.0
2017-Mar-19 04:31N 53°36' E 008°31'0 0.0
2017-Mar-19 03:33N 53°36' E 008°31'0 0.0
2017-Mar-19 02:33N 53°36' E 008°31'0 0.0
2017-Mar-19 01:33N 53°36' E 008°31'0 0.0
2017-Mar-19 00:32N 53°36' E 008°31'0 0.0
2017-Mar-18 23:32N 53°36' E 008°31'0 0.0
2017-Mar-18 22:31N 53°36' E 008°31'0 0.0
2017-Mar-18 21:28N 53°36' E 008°31'0 0.0
2017-Mar-18 20:33N 53°36' E 008°31'0 0.0
2017-Mar-18 19:33N 53°36' E 008°31'0 0.0
2017-Mar-18 18:33N 53°36' E 008°31'0 0.0
2017-Mar-18 17:32N 53°36' E 008°31'0 0.0
2017-Mar-18 16:32N 53°36' E 008°31'0 0.0
2017-Mar-18 15:31N 53°36' E 008°31'2 1.7
2017-Mar-18 14:33N 53°37' E 008°28'1515.3
2017-Mar-18 13:33N 53°47' E 008°09'13 2.4
2017-Mar-18 08:10N 53°55' E 007°51'0 0.1
2017-Mar-18 07:31N 53°55' E 007°52'0 0.0
2017-Mar-18 06:30N 53°55' E 007°52'0 0.1
2017-Mar-18 05:27N 53°55' E 007°52'0 0.0
2017-Mar-18 04:30N 53°55' E 007°52'0 0.0
2017-Mar-18 03:29N 53°55' E 007°52'0 0.0
2017-Mar-18 02:29N 53°55' E 007°52'0 0.0
2017-Mar-18 01:31N 53°55' E 007°52'0 0.1
2017-Mar-18 00:28N 53°55' E 007°52'0 0.0
2017-Mar-17 23:09N 53°55' E 007°52'0 0.0
2017-Mar-17 22:33N 53°55' E 007°52'0 0.0
2017-Mar-17 21:27N 53°55' E 007°52'69 7.0
2017-Mar-17 11:32N 54°47' E 006°33'8 8.3
2017-Mar-17 10:33N 54°54' E 006°25'8 7.7
2017-Mar-17 09:32N 54°60' E 006°35'7 7.7
2017-Mar-17 08:33N 55°05' E 006°45'8 8.0
2017-Mar-17 07:33N 55°09' E 006°33'11 4.9
2017-Mar-17 05:23N 55°18' E 006°24'154 9.4
2017-Mar-16 13:07N 57°40' E 008°13'3712.6
2017-Mar-16 10:11N 58°09' E 008°57'3714.2
2017-Mar-16 07:33N 58°36' E 009°45'1514.8
2017-Mar-16 06:33N 58°46' E 010°06'1514.9
2017-Mar-16 05:33N 58°56' E 010°26'1312.8
2017-Mar-16 04:33N 59°07' E 010°41'1414.3
2017-Mar-16 03:33N 59°21' E 010°35'5 5.4
2017-Mar-16 02:33N 59°26' E 010°39'0 0.0
2017-Mar-16 01:33N 59°26' E 010°39'0 0.0
2017-Mar-16 00:33N 59°26' E 010°39'0 0.0
2017-Mar-15 23:33N 59°26' E 010°39'0 0.0
2017-Mar-15 22:33N 59°26' E 010°39'0 0.0
2017-Mar-15 21:33N 59°26' E 010°39'0 0.0
2017-Mar-15 20:33N 59°26' E 010°39'0 0.0
2017-Mar-15 19:33N 59°26' E 010°39'0 0.0
2017-Mar-15 18:33N 59°26' E 010°39'0 0.1
2017-Mar-15 17:33N 59°25' E 010°39'1110.6
2017-Mar-15 16:34N 59°33' E 010°24'6 6.4
2017-Mar-15 15:33N 59°39' E 010°24'7 6.6
2017-Mar-15 14:28N 59°44' E 010°14'0 0.0
2017-Mar-15 13:31N 59°44' E 010°14'0 0.0
2017-Mar-15 12:33N 59°44' E 010°14'0 0.0
2017-Mar-15 11:33N 59°44' E 010°14'0 0.0
2017-Mar-15 10:32N 59°44' E 010°14'0 0.0
2017-Mar-15 09:32N 59°44' E 010°14'0 0.0
2017-Mar-15 08:32N 59°44' E 010°14'0 0.0
2017-Mar-15 07:28N 59°44' E 010°14'0 0.0
2017-Mar-15 06:31N 59°44' E 010°14'0 0.2
2017-Mar-15 05:33N 59°44' E 010°15'10 9.7
2017-Mar-15 04:33N 59°36' E 010°25'1110.6
2017-Mar-15 03:34N 59°26' E 010°32'1414.5
2017-Mar-15 02:33N 59°12' E 010°39'1111.5
2017-Mar-15 01:33N 59°00' E 010°36'1111.0
2017-Mar-15 00:33N 58°50' E 010°37'1211.5
2017-Mar-14 23:34N 58°38' E 010°36'10 9.7
2017-Mar-14 22:33N 58°28' E 010°38'10 9.9
2017-Mar-14 21:33N 58°22' E 010°53'9 8.7
2017-Mar-14 20:33N 58°14' E 010°60'10 9.6
2017-Mar-14 19:33N 58°05' E 010°54'10 9.6
2017-Mar-14 18:33N 57°56' E 010°47'8 8.3
2017-Mar-14 17:34N 57°48' E 010°47'9 8.8
2017-Mar-14 16:33N 57°42' E 010°59'8 8.4
2017-Mar-14 15:33N 57°36' E 011°11'9 9.1
2017-Mar-14 14:33N 57°30' E 011°23'10 9.5
2017-Mar-14 13:33N 57°21' E 011°31'1110.0
2017-Mar-14 12:27N 57°11' E 011°38'21 9.6
2017-Mar-14 10:15N 56°51' E 011°51'8 9.1
2017-Mar-14 09:19N 56°43' E 011°56'11 9.8
2017-Mar-14 08:12N 56°32' E 011°60'7 9.6
2017-Mar-14 07:29N 56°25' E 012°02'8 9.2
2017-Mar-14 06:33N 56°17' E 012°07'9 8.7
2017-Mar-14 05:33N 56°13' E 012°20'9 9.1
2017-Mar-14 04:33N 56°07' E 012°33'7 7.0
2017-Mar-14 03:33N 56°02' E 012°42'0 0.0
2017-Mar-14 02:33N 56°02' E 012°42'0 0.0
2017-Mar-14 01:32N 56°02' E 012°42'0 0.0
2017-Mar-14 00:32N 56°02' E 012°42'0 0.0
2017-Mar-13 23:32N 56°02' E 012°42'0 0.0
2017-Mar-13 22:31N 56°02' E 012°42'0 0.0
2017-Mar-13 21:31N 56°02' E 012°42'0 0.0
2017-Mar-13 20:33N 56°02' E 012°42'  
Track history (hours):
 
Tides and Currents Weather Stations Pressure Air Temp Water Temp Dewpoint Dewpoint Depression Visibility Wind Speed Wind Dir Waves Ship Positions

Bf Esperanza

Last reported at 2017-Mar-23 19:34 UTC. Time now 2017-Mar-23 20:25 UTC.
Position N 59°00' E 010°33'.

Length 135 m; draft 8.4 m.

Type: Ship (hazmat cat A). MMSI: 304907000.

Date/timePositionNaut miles runAvg speedWind from/ knotsBaromVisibWave heightAir tempDewpointWater temp
2017-Mar-23 19:34N 59°00' E 010°33'1312.9
2017-Mar-23 18:33N 59°13' E 010°36'1615.9
2017-Mar-23 17:33N 59°29' E 010°29'1111.0
2017-Mar-23 16:33N 59°39' E 010°24'7 5.0
2017-Mar-23 15:09N 59°44' E 010°14'0 0.0
2017-Mar-23 14:32N 59°44' E 010°14'0 0.0
2017-Mar-23 13:32N 59°44' E 010°14'0 0.0
2017-Mar-23 12:31N 59°44' E 010°14'0 0.0
2017-Mar-23 11:31N 59°44' E 010°14'0 0.0
2017-Mar-23 10:31N 59°44' E 010°14'0 0.0
2017-Mar-23 09:33N 59°44' E 010°14'0 0.0
2017-Mar-23 08:33N 59°44' E 010°14'0 0.0
2017-Mar-23 07:32N 59°44' E 010°14'0 0.0
2017-Mar-23 06:32N 59°44' E 010°14'0 0.0
2017-Mar-23 05:32N 59°44' E 010°14'4 3.5
2017-Mar-23 04:33N 59°42' E 010°20'9 8.8
2017-Mar-23 03:33N 59°34' E 010°25'10 9.8
2017-Mar-23 02:33N 59°25' E 010°34'1414.2
2017-Mar-23 01:33N 59°11' E 010°39'1212.4
2017-Mar-23 00:33N 58°59' E 010°35'1414.2
2017-Mar-22 23:33N 58°45' E 010°37'1514.8
2017-Mar-22 22:34N 58°30' E 010°39'1414.4
2017-Mar-22 21:33N 58°16' E 010°41'1414.4
2017-Mar-22 20:33N 58°01' E 010°43'1413.9
2017-Mar-22 19:33N 57°48' E 010°49'1414.3
2017-Mar-22 18:33N 57°37' E 011°08'1514.6
2017-Mar-22 17:33N 57°27' E 011°27'1514.6
2017-Mar-22 16:33N 57°13' E 011°36'1514.8
2017-Mar-22 15:32N 56°59' E 011°46'4515.1
2017-Mar-22 12:34N 56°16' E 012°10'1515.1
2017-Mar-22 11:33N 56°07' E 012°32'8 7.5
2017-Mar-22 10:32N 56°02' E 012°42'0 0.0
2017-Mar-22 09:32N 56°02' E 012°42'0 0.0
2017-Mar-22 08:31N 56°02' E 012°42'0 0.0
2017-Mar-22 07:31N 56°02' E 012°42'0 0.0
2017-Mar-22 06:33N 56°02' E 012°42'0 0.0
2017-Mar-22 05:33N 56°02' E 012°42'0 0.0
2017-Mar-22 04:33N 56°02' E 012°42'0 0.0
2017-Mar-22 03:32N 56°02' E 012°42'0 0.0
2017-Mar-22 02:32N 56°02' E 012°42'0 0.0
2017-Mar-22 01:31N 56°02' E 012°42'0 0.0
2017-Mar-22 00:31N 56°02' E 012°42'0 0.0
2017-Mar-21 23:33N 56°02' E 012°42'0 0.0
2017-Mar-21 22:33N 56°02' E 012°42'0 0.0
2017-Mar-21 21:33N 56°02' E 012°42'0 0.0
2017-Mar-21 20:32N 56°02' E 012°42'0 0.0
2017-Mar-21 19:29N 56°02' E 012°42'0 0.0
2017-Mar-21 18:31N 56°02' E 012°42'0 0.0
2017-Mar-21 17:31N 56°02' E 012°42'0 0.0
2017-Mar-21 16:33N 56°02' E 012°42'0 0.0
2017-Mar-21 15:33N 56°02' E 012°42'0 0.0
2017-Mar-21 14:33N 56°02' E 012°42'0 0.0
2017-Mar-21 13:32N 56°02' E 012°42'0 0.0
2017-Mar-21 12:32N 56°02' E 012°42'0 0.0
2017-Mar-21 11:31N 56°02' E 012°42'0 0.0
2017-Mar-21 10:31N 56°02' E 012°42'0 0.0
2017-Mar-21 09:33N 56°02' E 012°42'0 0.0
2017-Mar-21 08:33N 56°02' E 012°42'0 0.0
2017-Mar-21 07:32N 56°02' E 012°42'0 0.0
2017-Mar-21 06:32N 56°02' E 012°42'1 0.9
2017-Mar-21 05:33N 56°01' E 012°42'8 7.9
2017-Mar-21 04:33N 56°07' E 012°32'9 9.3
2017-Mar-21 03:33N 56°12' E 012°18'1312.6
2017-Mar-21 02:33N 56°21' E 012°02'68 9.5
2017-Mar-20 19:28N 55°22' E 011°02'1213.2
2017-Mar-20 18:34N 55°10' E 011°04'1313.2
2017-Mar-20 17:33N 54°58' E 010°59'1312.9
2017-Mar-20 16:33N 54°45' E 010°53'1312.8
2017-Mar-20 15:33N 54°35' E 010°39'46 6.3
2017-Mar-20 08:14N 54°11' E 009°31'5 6.8
2017-Mar-20 07:33N 54°10' E 009°24'5 5.1
2017-Mar-20 06:31N 54°05' E 009°19'5 5.4
2017-Mar-20 05:33N 53°60' E 009°18'5 4.9
2017-Mar-20 04:33N 53°56' E 009°13'3 3.3
2017-Mar-20 03:33N 53°54' E 009°09'2 1.7
2017-Mar-20 02:33N 53°53' E 009°06'7 7.5
2017-Mar-20 01:33N 53°51' E 008°54'1413.7
2017-Mar-20 00:33N 53°58' E 008°34'1515.3
2017-Mar-19 23:33N 53°60' E 008°08'1111.0
2017-Mar-19 22:33N 53°52' E 007°55'1414.2
2017-Mar-19 21:33N 53°44' E 008°15'1211.9
2017-Mar-19 20:32N 53°36' E 008°31'0 0.0
2017-Mar-19 19:31N 53°36' E 008°31'0 0.0
2017-Mar-19 18:31N 53°36' E 008°31'0 0.0
2017-Mar-19 17:30N 53°36' E 008°31'0 0.0
2017-Mar-19 16:33N 53°36' E 008°31'0 0.0
2017-Mar-19 15:33N 53°36' E 008°31'0 0.0
2017-Mar-19 14:32N 53°36' E 008°31'0 0.0
2017-Mar-19 13:32N 53°36' E 008°31'0 0.0
2017-Mar-19 12:28N 53°36' E 008°31'0 0.0
2017-Mar-19 11:31N 53°36' E 008°31'0 0.0
2017-Mar-19 10:33N 53°36' E 008°31'0 0.0
2017-Mar-19 09:33N 53°36' E 008°31'0 0.0
2017-Mar-19 08:33N 53°36' E 008°31'0 0.0
2017-Mar-19 07:32N 53°36' E 008°31'0 0.0
2017-Mar-19 06:32N 53°36' E 008°31'0 0.0
2017-Mar-19 05:31N 53°36' E 008°31'0 0.0
2017-Mar-19 04:31N 53°36' E 008°31'0 0.0
2017-Mar-19 03:33N 53°36' E 008°31'0 0.0
2017-Mar-19 02:33N 53°36' E 008°31'0 0.0
2017-Mar-19 01:33N 53°36' E 008°31'0 0.0
2017-Mar-19 00:32N 53°36' E 008°31'0 0.0
2017-Mar-18 23:32N 53°36' E 008°31'0 0.0
2017-Mar-18 22:31N 53°36' E 008°31'0 0.0
2017-Mar-18 21:28N 53°36' E 008°31'0 0.0
2017-Mar-18 20:33N 53°36' E 008°31'0 0.0
2017-Mar-18 19:33N 53°36' E 008°31'0 0.0
2017-Mar-18 18:33N 53°36' E 008°31'0 0.0
2017-Mar-18 17:32N 53°36' E 008°31'0 0.0
2017-Mar-18 16:32N 53°36' E 008°31'0 0.0
2017-Mar-18 15:31N 53°36' E 008°31'2 1.7
2017-Mar-18 14:33N 53°37' E 008°28'1515.3
2017-Mar-18 13:33N 53°47' E 008°09'13 2.4
2017-Mar-18 08:10N 53°55' E 007°51'0 0.1
2017-Mar-18 07:31N 53°55' E 007°52'0 0.0
2017-Mar-18 06:30N 53°55' E 007°52'0 0.1
2017-Mar-18 05:27N 53°55' E 007°52'0 0.0
2017-Mar-18 04:30N 53°55' E 007°52'0 0.0
2017-Mar-18 03:29N 53°55' E 007°52'0 0.0
2017-Mar-18 02:29N 53°55' E 007°52'0 0.0
2017-Mar-18 01:31N 53°55' E 007°52'0 0.1
2017-Mar-18 00:28N 53°55' E 007°52'0 0.0
2017-Mar-17 23:09N 53°55' E 007°52'0 0.0
2017-Mar-17 22:33N 53°55' E 007°52'0 0.0
2017-Mar-17 21:27N 53°55' E 007°52'69 7.0
2017-Mar-17 11:32N 54°47' E 006°33'8 8.3
2017-Mar-17 10:33N 54°54' E 006°25'8 7.7
2017-Mar-17 09:32N 54°60' E 006°35'7 7.7
2017-Mar-17 08:33N 55°05' E 006°45'8 8.0
2017-Mar-17 07:33N 55°09' E 006°33'11 4.9
2017-Mar-17 05:23N 55°18' E 006°24'154 9.4
2017-Mar-16 13:07N 57°40' E 008°13'3712.6
2017-Mar-16 10:11N 58°09' E 008°57'3714.2
2017-Mar-16 07:33N 58°36' E 009°45'1514.8
2017-Mar-16 06:33N 58°46' E 010°06'1514.9
2017-Mar-16 05:33N 58°56' E 010°26'1312.8
2017-Mar-16 04:33N 59°07' E 010°41'1414.3
2017-Mar-16 03:33N 59°21' E 010°35'5 5.4
2017-Mar-16 02:33N 59°26' E 010°39'0 0.0
2017-Mar-16 01:33N 59°26' E 010°39'0 0.0
2017-Mar-16 00:33N 59°26' E 010°39'0 0.0
2017-Mar-15 23:33N 59°26' E 010°39'0 0.0
2017-Mar-15 22:33N 59°26' E 010°39'0 0.0
2017-Mar-15 21:33N 59°26' E 010°39'0 0.0
2017-Mar-15 20:33N 59°26' E 010°39'0 0.0
2017-Mar-15 19:33N 59°26' E 010°39'0 0.0
2017-Mar-15 18:33N 59°26' E 010°39'0 0.1
2017-Mar-15 17:33N 59°25' E 010°39'1110.6
2017-Mar-15 16:34N 59°33' E 010°24'6 6.4
2017-Mar-15 15:33N 59°39' E 010°24'7 6.6
2017-Mar-15 14:28N 59°44' E 010°14'0 0.0
2017-Mar-15 13:31N 59°44' E 010°14'0 0.0
2017-Mar-15 12:33N 59°44' E 010°14'0 0.0
2017-Mar-15 11:33N 59°44' E 010°14'0 0.0
2017-Mar-15 10:32N 59°44' E 010°14'0 0.0
2017-Mar-15 09:32N 59°44' E 010°14'0 0.0
2017-Mar-15 08:32N 59°44' E 010°14'0 0.0
2017-Mar-15 07:28N 59°44' E 010°14'0 0.0
2017-Mar-15 06:31N 59°44' E 010°14'0 0.2
2017-Mar-15 05:33N 59°44' E 010°15'10 9.7
2017-Mar-15 04:33N 59°36' E 010°25'1110.6
2017-Mar-15 03:34N 59°26' E 010°32'1414.5
2017-Mar-15 02:33N 59°12' E 010°39'1111.5
2017-Mar-15 01:33N 59°00' E 010°36'1111.0
2017-Mar-15 00:33N 58°50' E 010°37'1211.5
2017-Mar-14 23:34N 58°38' E 010°36'10 9.7
2017-Mar-14 22:33N 58°28' E 010°38'10 9.9
2017-Mar-14 21:33N 58°22' E 010°53'9 8.7
2017-Mar-14 20:33N 58°14' E 010°60'10 9.6
2017-Mar-14 19:33N 58°05' E 010°54'10 9.6
2017-Mar-14 18:33N 57°56' E 010°47'8 8.3
2017-Mar-14 17:34N 57°48' E 010°47'9 8.8
2017-Mar-14 16:33N 57°42' E 010°59'8 8.4
2017-Mar-14 15:33N 57°36' E 011°11'9 9.1
2017-Mar-14 14:33N 57°30' E 011°23'10 9.5
2017-Mar-14 13:33N 57°21' E 011°31'1110.0
2017-Mar-14 12:27N 57°11' E 011°38'21 9.6
2017-Mar-14 10:15N 56°51' E 011°51'8 9.1
2017-Mar-14 09:19N 56°43' E 011°56'11 9.8
2017-Mar-14 08:12N 56°32' E 011°60'7 9.6
2017-Mar-14 07:29N 56°25' E 012°02'8 9.2
2017-Mar-14 06:33N 56°17' E 012°07'9 8.7
2017-Mar-14 05:33N 56°13' E 012°20'9 9.1
2017-Mar-14 04:33N 56°07' E 012°33'7 7.0
2017-Mar-14 03:33N 56°02' E 012°42'0 0.0
2017-Mar-14 02:33N 56°02' E 012°42'0 0.0
2017-Mar-14 01:32N 56°02' E 012°42'0 0.0
2017-Mar-14 00:32N 56°02' E 012°42'0 0.0
2017-Mar-13 23:32N 56°02' E 012°42'0 0.0
2017-Mar-13 22:31N 56°02' E 012°42'0 0.0
2017-Mar-13 21:31N 56°02' E 012°42'0 0.0
2017-Mar-13 20:33N 56°02' E 012°42'  

Dump ship's entire track history